createdAt,value
2023-01-26T00:01:24.592Z,3.80
2023-01-26T00:03:52.756Z,4.00
2023-01-26T00:06:22.303Z,4.00
2023-01-26T00:08:51.846Z,3.80
2023-01-26T00:11:24.278Z,3.80
2023-01-26T00:13:52.540Z,3.80
2023-01-26T00:16:22.165Z,3.90
2023-01-26T00:18:50.075Z,4.00
2023-01-26T00:21:20.357Z,4.10
2023-01-26T00:23:49.456Z,4.00
2023-01-26T00:26:19.671Z,4.10
2023-01-26T00:28:47.841Z,3.90
2023-01-26T00:31:17.769Z,3.90
2023-01-26T00:33:47.239Z,3.90
2023-01-26T00:36:15.336Z,3.90
2023-01-26T00:38:43.588Z,3.80
2023-01-26T00:41:32.802Z,3.70
2023-01-26T00:44:01.045Z,3.70
2023-01-26T00:46:28.889Z,3.80
2023-01-26T00:48:58.026Z,3.60
2023-01-26T00:51:25.818Z,3.60
2023-01-26T00:53:53.608Z,3.50
2023-01-26T00:56:21.642Z,3.50
2023-01-26T00:58:49.418Z,3.30
2023-01-26T01:01:17.208Z,3.20
2023-01-26T01:03:45.029Z,3.00
2023-01-26T01:06:14.107Z,2.90
2023-01-26T01:08:41.888Z,2.80
2023-01-26T01:11:12.248Z,2.80
2023-01-26T01:13:40.938Z,2.80
2023-01-26T01:16:10.125Z,2.90
2023-01-26T01:18:38.312Z,2.80
2023-01-26T01:21:08.142Z,2.90
2023-01-26T01:23:37.792Z,2.90
2023-01-26T01:26:06.672Z,2.60
2023-01-26T01:28:35.646Z,2.60
2023-01-26T01:31:05.581Z,2.40
2023-01-26T01:33:33.691Z,2.30
2023-01-26T01:36:03.376Z,2.30
2023-01-26T01:38:31.501Z,2.50
2023-01-26T01:41:00.676Z,2.70
2023-01-26T01:43:29.413Z,2.80
2023-01-26T01:45:57.954Z,2.90
2023-01-26T01:48:31.589Z,3.10
2023-01-26T01:51:05.797Z,3.10
2023-01-26T01:53:38.525Z,3.10
2023-01-26T01:56:13.159Z,3.10
2023-01-26T01:58:44.384Z,3.30
2023-01-26T02:01:12.346Z,3.30
2023-01-26T02:03:42.211Z,3.40
2023-01-26T02:06:14.619Z,3.50
2023-01-26T02:08:46.303Z,3.50
2023-01-26T02:11:18.017Z,3.40
2023-01-26T02:13:48.878Z,3.20
2023-01-26T02:16:17.002Z,3.30
2023-01-26T02:18:45.776Z,3.20
2023-01-26T02:21:17.186Z,3.30
2023-01-26T02:23:57.729Z,3.50
2023-01-26T02:26:29.219Z,3.00
2023-01-26T02:28:57.654Z,3.10
2023-01-26T02:31:26.127Z,3.10
2023-01-26T02:33:53.953Z,2.90
2023-01-26T02:36:24.684Z,3.00
2023-01-26T02:39:15.074Z,2.90
2023-01-26T02:42:02.189Z,3.00
2023-01-26T02:44:30.936Z,3.10
2023-01-26T02:46:58.780Z,3.20
2023-01-26T02:49:44.109Z,3.30
2023-01-26T02:52:11.924Z,3.40
2023-01-26T02:54:57.061Z,3.40
2023-01-26T02:57:26.545Z,3.40
2023-01-26T02:59:54.356Z,3.50
2023-01-26T03:02:22.374Z,3.50
2023-01-26T03:04:50.194Z,3.50
2023-01-26T03:07:18.068Z,3.60
2023-01-26T03:09:45.883Z,3.70
2023-01-26T03:12:14.029Z,3.70
2023-01-26T03:14:43.147Z,3.70
2023-01-26T03:17:11.109Z,3.70
2023-01-26T03:19:56.403Z,3.60
2023-01-26T03:22:41.780Z,3.70
2023-01-26T03:25:27.687Z,3.70
2023-01-26T03:27:55.472Z,3.70
2023-01-26T03:30:24.641Z,3.80
2023-01-26T03:32:52.442Z,3.80
2023-01-26T03:35:22.922Z,3.80
2023-01-26T03:37:54.562Z,3.80
2023-01-26T03:40:40.153Z,3.90
2023-01-26T03:43:28.255Z,3.80
2023-01-26T03:46:15.158Z,3.90
2023-01-26T03:49:00.696Z,3.70
2023-01-26T03:51:46.236Z,3.60
2023-01-26T03:54:31.680Z,3.70
2023-01-26T03:56:59.489Z,3.80
2023-01-26T03:59:38.945Z,3.80
2023-01-26T04:02:27.587Z,3.70
2023-01-26T04:05:13.564Z,3.40
2023-01-26T04:07:59.198Z,3.30
2023-01-26T04:10:27.591Z,3.00
2023-01-26T04:13:12.970Z,2.90
2023-01-26T04:15:58.415Z,3.10
2023-01-26T04:18:45.262Z,3.30
2023-01-26T04:21:28.996Z,3.40
2023-01-26T04:23:58.247Z,3.40
2023-01-26T04:26:27.483Z,3.50
2023-01-26T04:28:55.269Z,3.50
2023-01-26T04:31:23.100Z,3.60
2023-01-26T04:33:52.225Z,3.70
2023-01-26T04:36:20.009Z,3.70
2023-01-26T04:38:47.973Z,3.70
2023-01-26T04:41:15.735Z,3.70
2023-01-26T04:43:43.545Z,3.60
2023-01-26T04:46:11.936Z,3.60
2023-01-26T04:48:40.050Z,3.60
2023-01-26T04:51:12.965Z,3.60
2023-01-26T04:53:40.877Z,3.60
2023-01-26T04:56:09.850Z,3.60
2023-01-26T04:58:37.631Z,3.60
2023-01-26T05:01:05.558Z,3.70
2023-01-26T05:03:33.737Z,3.70
2023-01-26T05:06:01.562Z,3.70
2023-01-26T05:08:30.762Z,3.60
2023-01-26T05:10:58.576Z,3.40
2023-01-26T05:13:26.366Z,3.50
2023-01-26T05:15:54.176Z,3.50
2023-01-26T05:18:21.978Z,3.70
2023-01-26T05:20:49.927Z,3.80
2023-01-26T05:23:17.729Z,4.00
2023-01-26T05:25:46.877Z,4.10
2023-01-26T05:28:14.819Z,4.10
2023-01-26T05:30:42.708Z,4.10
2023-01-26T05:33:11.935Z,4.10
2023-01-26T05:35:39.781Z,4.10
2023-01-26T05:38:07.575Z,3.90
2023-01-26T05:40:35.514Z,3.60
2023-01-26T05:43:04.761Z,3.40
2023-01-26T05:45:32.624Z,2.80
2023-01-26T05:48:00.491Z,2.30
2023-01-26T05:50:29.286Z,2.10
2023-01-26T05:52:57.193Z,1.70
2023-01-26T05:55:25.031Z,1.30
2023-01-26T05:57:52.869Z,1.20
2023-01-26T06:00:22.937Z,0.90
2023-01-26T06:02:50.755Z,0.90
2023-01-26T06:05:18.601Z,0.80
2023-01-26T06:07:46.379Z,0.70
2023-01-26T06:10:14.338Z,0.60
2023-01-26T06:12:43.051Z,0.60
2023-01-26T06:15:12.400Z,0.50
2023-01-26T06:17:41.547Z,0.50
2023-01-26T06:20:11.286Z,0.40
2023-01-26T06:22:39.288Z,0.30
2023-01-26T06:25:07.430Z,0.20
2023-01-26T06:27:35.719Z,0.10
2023-01-26T06:30:05.302Z,0.10
2023-01-26T06:32:33.104Z,0.10
2023-01-26T06:35:03.203Z,0.10
2023-01-26T06:37:31.003Z,0.10
2023-01-26T06:39:58.768Z,0.10
2023-01-26T06:42:26.607Z,0.10
2023-01-26T06:44:54.425Z,0.10
2023-01-26T06:47:22.313Z,0.10
2023-01-26T06:49:50.434Z,0.10
2023-01-26T06:52:27.283Z,0.10
2023-01-26T06:54:56.499Z,0.10
2023-01-26T06:57:24.335Z,3.00
2023-01-26T06:59:52.134Z,5.70
2023-01-26T07:02:21.649Z,6.80
2023-01-26T07:04:50.694Z,7.30
2023-01-26T07:07:18.560Z,7.30
2023-01-26T07:09:47.758Z,5.90
2023-01-26T07:12:15.560Z,4.50
2023-01-26T07:14:45.005Z,3.70
2023-01-26T07:17:12.891Z,3.10
2023-01-26T07:19:40.682Z,2.50
2023-01-26T07:22:08.496Z,1.90
2023-01-26T07:24:36.416Z,1.60
2023-01-26T07:27:05.558Z,1.50
2023-01-26T07:29:33.336Z,1.30
2023-01-26T07:32:01.211Z,1.10
2023-01-26T07:34:29.059Z,0.90
2023-01-26T07:36:56.832Z,0.90
2023-01-26T07:39:24.655Z,0.70
2023-01-26T07:41:52.462Z,0.60
2023-01-26T07:44:21.608Z,0.50
2023-01-26T07:46:49.483Z,0.50
2023-01-26T07:49:17.297Z,0.50
2023-01-26T07:51:45.539Z,0.50
2023-01-26T07:54:13.817Z,0.50
2023-01-26T07:56:41.590Z,0.50
2023-01-26T07:59:12.017Z,0.60
2023-01-26T08:01:41.475Z,0.40
2023-01-26T08:04:09.245Z,0.40
2023-01-26T08:06:37.045Z,0.40
2023-01-26T08:09:05.096Z,0.30
2023-01-26T08:11:32.915Z,0.40
2023-01-26T08:14:00.740Z,0.40
2023-01-26T08:16:28.746Z,0.40
2023-01-26T08:18:57.936Z,0.40
2023-01-26T08:21:25.956Z,0.30
2023-01-26T08:23:54.021Z,0.40
2023-01-26T08:26:22.242Z,0.50
2023-01-26T08:28:50.130Z,0.40
2023-01-26T08:31:20.301Z,0.50
2023-01-26T08:33:50.652Z,0.50
2023-01-26T08:36:22.587Z,0.50
2023-01-26T08:38:51.483Z,0.40
2023-01-26T08:41:19.810Z,0.40
2023-01-26T08:43:48.026Z,0.50
2023-01-26T08:46:16.217Z,0.50
2023-01-26T08:48:44.124Z,0.40
2023-01-26T08:51:11.992Z,0.30
2023-01-26T08:53:41.111Z,0.40
2023-01-26T08:56:11.179Z,0.40
2023-01-26T08:58:39.577Z,0.40
2023-01-26T09:01:08.167Z,0.40
2023-01-26T09:03:36.237Z,0.40
2023-01-26T09:06:05.248Z,0.40
2023-01-26T09:08:33.718Z,0.30
2023-01-26T09:11:03.332Z,0.20
2023-01-26T09:13:31.169Z,0.20
2023-01-26T09:15:59.098Z,0.20
2023-01-26T09:18:26.924Z,0.20
2023-01-26T09:20:55.806Z,0.10
2023-01-26T09:23:23.644Z,0.10
2023-01-26T09:25:55.000Z,0.00
2023-01-26T09:28:24.333Z,0.00
2023-01-26T09:30:52.275Z,0.00
2023-01-26T09:33:21.480Z,-0.10
2023-01-26T09:35:49.919Z,-0.10
2023-01-26T09:38:17.752Z,-0.10
2023-01-26T09:40:54.818Z,-0.10
2023-01-26T09:43:29.577Z,-0.10
2023-01-26T09:46:04.227Z,-0.10
2023-01-26T09:48:41.239Z,-0.10
2023-01-26T09:51:15.345Z,-0.20
2023-01-26T09:53:48.925Z,-0.20
2023-01-26T09:56:19.661Z,-0.20
2023-01-26T09:58:56.049Z,-0.10
2023-01-26T10:01:30.670Z,-0.10
2023-01-26T10:04:05.969Z,0.00
2023-01-26T10:06:34.902Z,0.00
2023-01-26T10:09:07.154Z,0.00
2023-01-26T10:11:40.011Z,0.10
2023-01-26T10:14:15.909Z,0.10
2023-01-26T10:16:47.047Z,0.20
2023-01-26T10:19:21.841Z,0.20
2023-01-26T10:21:52.643Z,0.30
2023-01-26T10:24:23.828Z,0.40
2023-01-26T10:26:57.572Z,0.40
2023-01-26T10:29:26.919Z,0.50
2023-01-26T10:31:55.416Z,0.40
2023-01-26T10:34:26.041Z,0.60
2023-01-26T10:37:01.509Z,0.60
2023-01-26T10:39:29.354Z,0.50
2023-01-26T10:41:59.425Z,0.60
2023-01-26T10:44:33.923Z,0.60
2023-01-26T10:47:08.101Z,0.70
2023-01-26T10:49:36.034Z,0.80
2023-01-26T10:52:09.094Z,0.90
2023-01-26T10:54:38.133Z,1.00
2023-01-26T10:57:11.401Z,1.00
2023-01-26T10:59:46.044Z,0.90
2023-01-26T11:02:27.716Z,0.90
2023-01-26T11:05:21.263Z,0.90
2023-01-26T11:07:51.161Z,1.00
2023-01-26T11:10:26.588Z,1.10
2023-01-26T11:13:16.496Z,1.00
2023-01-26T11:15:48.605Z,1.00
2023-01-26T11:18:33.331Z,1.10
2023-01-26T11:21:04.515Z,1.00
2023-01-26T11:23:50.680Z,1.00
2023-01-26T11:26:54.992Z,1.10
2023-01-26T11:29:40.579Z,1.10
2023-01-26T11:32:18.636Z,1.20
2023-01-26T11:35:06.743Z,1.30
2023-01-26T11:37:57.774Z,1.50
2023-01-26T11:40:32.841Z,1.40
2023-01-26T11:43:27.095Z,1.40
2023-01-26T11:46:09.268Z,1.50
2023-01-26T11:48:49.087Z,1.40
2023-01-26T11:51:25.307Z,1.40
2023-01-26T11:54:16.971Z,1.30
2023-01-26T11:56:54.088Z,1.30
2023-01-26T11:59:27.780Z,1.30
2023-01-26T12:02:00.591Z,1.20
2023-01-26T12:04:34.156Z,1.20
2023-01-26T12:07:07.488Z,1.30
2023-01-26T12:09:42.202Z,1.20
2023-01-26T12:12:15.191Z,1.20
2023-01-26T12:14:49.157Z,1.20
2023-01-26T12:17:33.290Z,1.10
2023-01-26T12:20:24.530Z,1.00
2023-01-26T12:22:59.153Z,1.00
2023-01-26T12:25:33.291Z,1.10
2023-01-26T12:28:12.048Z,1.10
2023-01-26T12:30:48.622Z,1.00
2023-01-26T12:33:17.075Z,1.10
2023-01-26T12:36:14.043Z,1.00
2023-01-26T12:38:51.169Z,0.90
2023-01-26T12:41:32.241Z,1.00
2023-01-26T12:44:11.134Z,0.90
2023-01-26T12:46:43.315Z,0.90
2023-01-26T12:49:18.174Z,0.90
2023-01-26T12:51:52.860Z,0.80
2023-01-26T12:54:28.752Z,0.70
2023-01-26T12:57:00.387Z,0.70
2023-01-26T12:59:47.981Z,0.70
2023-01-26T13:02:29.494Z,0.80
2023-01-26T13:04:59.418Z,0.80
2023-01-26T13:07:31.913Z,0.90
2023-01-26T13:10:20.367Z,0.90
2023-01-26T13:12:49.840Z,0.90
2023-01-26T13:15:20.068Z,0.90
2023-01-26T13:17:56.758Z,1.00
2023-01-26T13:20:44.092Z,1.00
2023-01-26T13:23:42.089Z,1.00
2023-01-26T13:26:51.349Z,1.10
2023-01-26T13:29:32.751Z,1.10
2023-01-26T13:32:03.437Z,1.10
2023-01-26T13:34:37.547Z,1.10
2023-01-26T13:37:11.220Z,1.10
2023-01-26T13:39:45.261Z,1.10
2023-01-26T13:42:20.029Z,1.20
2023-01-26T13:44:55.684Z,1.20
2023-01-26T13:47:29.281Z,1.30
2023-01-26T13:49:57.056Z,1.30
2023-01-26T13:52:26.735Z,1.30
2023-01-26T13:54:57.726Z,1.40
2023-01-26T13:57:27.359Z,1.30
2023-01-26T13:59:59.008Z,1.30
2023-01-26T14:02:28.848Z,1.20
2023-01-26T14:04:58.137Z,1.20
2023-01-26T14:07:29.085Z,1.10
2023-01-26T14:10:08.157Z,1.10
2023-01-26T14:12:42.355Z,1.10
2023-01-26T14:15:23.609Z,1.20
2023-01-26T14:17:53.484Z,1.20
2023-01-26T14:20:27.438Z,1.30
2023-01-26T14:23:13.966Z,1.40
2023-01-26T14:25:46.522Z,1.40
2023-01-26T14:28:17.156Z,1.30
2023-01-26T14:30:51.514Z,1.30
2023-01-26T14:33:19.595Z,1.30
2023-01-26T14:35:57.367Z,1.30
2023-01-26T14:38:28.046Z,1.40
2023-01-26T14:40:59.751Z,1.30
2023-01-26T14:43:28.336Z,1.30
2023-01-26T14:46:01.713Z,1.30
2023-01-26T14:48:34.497Z,1.30
2023-01-26T14:51:04.864Z,1.30
2023-01-26T14:53:32.748Z,1.30
2023-01-26T14:56:01.892Z,1.20
2023-01-26T14:58:32.586Z,1.20
2023-01-26T15:01:03.061Z,1.20
2023-01-26T15:03:36.233Z,1.20
2023-01-26T15:06:17.851Z,1.30
2023-01-26T15:08:55.902Z,1.30
2023-01-26T15:11:53.803Z,1.30
2023-01-26T15:14:33.424Z,1.20
2023-01-26T15:17:01.569Z,1.30
2023-01-26T15:19:40.271Z,1.20
2023-01-26T15:22:22.838Z,1.30
2023-01-26T15:25:05.368Z,1.30
2023-01-26T15:27:38.117Z,1.40
2023-01-26T15:30:08.044Z,1.30
2023-01-26T15:32:40.803Z,1.40
2023-01-26T15:35:20.819Z,1.30
2023-01-26T15:37:50.202Z,1.30
2023-01-26T15:40:18.457Z,1.20
2023-01-26T15:42:47.604Z,1.30
2023-01-26T15:45:24.352Z,1.40
2023-01-26T15:47:52.152Z,1.40
2023-01-26T15:50:27.968Z,1.40
2023-01-26T15:52:56.269Z,1.20
2023-01-26T15:55:29.027Z,1.20
2023-01-26T15:57:58.211Z,1.30
2023-01-26T16:00:26.351Z,1.20
2023-01-26T16:02:54.730Z,1.30
2023-01-26T16:05:26.122Z,1.30
2023-01-26T16:07:53.899Z,1.40
2023-01-26T16:10:21.679Z,1.50
2023-01-26T16:12:50.636Z,1.40
2023-01-26T16:15:27.307Z,1.40
2023-01-26T16:17:55.107Z,1.50
2023-01-26T16:20:23.049Z,1.60
2023-01-26T16:22:51.068Z,1.50
2023-01-26T16:25:25.871Z,1.50
2023-01-26T16:27:54.115Z,1.50
2023-01-26T16:30:23.937Z,1.50
2023-01-26T16:32:52.426Z,1.50
2023-01-26T16:35:22.618Z,1.50
2023-01-26T16:37:50.652Z,1.50
2023-01-26T16:40:20.162Z,1.60
2023-01-26T16:42:50.515Z,1.60
2023-01-26T16:45:20.119Z,1.50
2023-01-26T16:47:54.817Z,1.60
2023-01-26T16:50:23.301Z,1.60
2023-01-26T16:52:52.091Z,1.50
2023-01-26T16:55:20.337Z,1.40
2023-01-26T16:57:49.747Z,1.40
2023-01-26T17:00:19.757Z,1.40
2023-01-26T17:02:51.017Z,1.30
2023-01-26T17:05:22.410Z,1.30
2023-01-26T17:07:51.440Z,1.30
2023-01-26T17:10:22.329Z,1.10
2023-01-26T17:12:50.660Z,1.10
2023-01-26T17:15:18.553Z,1.20
2023-01-26T17:17:49.243Z,1.20
2023-01-26T17:20:19.646Z,1.20
2023-01-26T17:22:49.645Z,1.10
2023-01-26T17:25:18.919Z,0.90
2023-01-26T17:27:49.707Z,0.90
2023-01-26T17:30:18.422Z,0.80
2023-01-26T17:32:46.267Z,0.80
2023-01-26T17:35:14.628Z,0.80
2023-01-26T17:37:42.695Z,0.70
2023-01-26T17:40:13.443Z,0.70
2023-01-26T17:42:41.352Z,0.70
2023-01-26T17:45:10.949Z,0.60
2023-01-26T17:47:39.567Z,0.50
2023-01-26T17:50:08.365Z,0.50
2023-01-26T17:52:36.469Z,0.40
2023-01-26T17:55:06.211Z,0.50
2023-01-26T17:57:35.734Z,0.50
2023-01-26T18:00:06.083Z,0.50
2023-01-26T18:02:34.149Z,0.70
2023-01-26T18:05:02.146Z,0.70
2023-01-26T18:07:29.923Z,0.70
2023-01-26T18:09:57.690Z,0.80
2023-01-26T18:12:25.515Z,0.80
2023-01-26T18:14:55.274Z,0.90
2023-01-26T18:17:23.159Z,0.90
2023-01-26T18:19:50.945Z,0.80
2023-01-26T18:22:18.736Z,0.80
2023-01-26T18:24:48.352Z,0.80
2023-01-26T18:27:16.224Z,0.70
2023-01-26T18:29:44.012Z,0.60
2023-01-26T18:32:13.142Z,0.60
2023-01-26T18:34:42.155Z,0.50
2023-01-26T18:37:10.135Z,0.50
2023-01-26T18:39:38.441Z,0.50
2023-01-26T18:42:06.371Z,0.50
2023-01-26T18:44:34.435Z,0.50
2023-01-26T18:47:02.255Z,0.40
2023-01-26T18:49:31.463Z,0.40
2023-01-26T18:51:59.243Z,0.40
2023-01-26T18:54:27.153Z,0.50
2023-01-26T18:56:56.229Z,0.50
2023-01-26T18:59:24.008Z,0.60
2023-01-26T19:01:51.774Z,0.50
2023-01-26T19:04:20.591Z,0.60
2023-01-26T19:06:49.701Z,0.60
2023-01-26T19:09:17.563Z,0.70
2023-01-26T19:11:45.464Z,0.70
2023-01-26T19:14:13.326Z,0.80
2023-01-26T19:16:43.820Z,0.90
2023-01-26T19:19:12.686Z,0.90
2023-01-26T19:21:40.448Z,0.90
2023-01-26T19:24:10.142Z,1.00
2023-01-26T19:26:37.997Z,1.10
2023-01-26T19:29:05.974Z,1.00
2023-01-26T19:31:35.369Z,1.10
2023-01-26T19:34:05.746Z,1.10
2023-01-26T19:36:36.531Z,1.10
2023-01-26T19:39:05.673Z,1.20
2023-01-26T19:41:35.771Z,1.20
2023-01-26T19:44:25.686Z,1.30
2023-01-26T19:46:54.514Z,1.40
2023-01-26T19:49:22.474Z,1.40
2023-01-26T19:51:50.340Z,1.30
2023-01-26T19:54:18.107Z,1.30
2023-01-26T19:56:47.254Z,1.30
2023-01-26T19:59:15.088Z,1.20
2023-01-26T20:01:42.933Z,1.10
2023-01-26T20:04:14.588Z,1.10
2023-01-26T20:06:42.503Z,1.10
2023-01-26T20:09:10.625Z,1.20
2023-01-26T20:11:38.563Z,1.10
2023-01-26T20:14:09.352Z,1.20
2023-01-26T20:16:37.875Z,1.20
2023-01-26T20:19:05.942Z,1.20
2023-01-26T20:21:35.469Z,1.10
2023-01-26T20:24:05.917Z,1.10
2023-01-26T20:26:35.867Z,1.20
2023-01-26T20:29:04.226Z,1.20
2023-01-26T20:31:34.013Z,1.10
2023-01-26T20:34:02.632Z,1.00
2023-01-26T20:36:30.627Z,1.00
2023-01-26T20:38:58.869Z,1.00
2023-01-26T20:41:29.659Z,1.10
2023-01-26T20:44:01.205Z,1.10
2023-01-26T20:46:30.831Z,1.10
2023-01-26T20:49:00.467Z,1.20
2023-01-26T20:51:30.589Z,1.30
2023-01-26T20:54:01.344Z,1.30
2023-01-26T20:56:29.530Z,1.30
2023-01-26T20:58:57.382Z,1.40
2023-01-26T21:01:26.015Z,1.40
2023-01-26T21:03:54.189Z,1.40
2023-01-26T21:06:24.713Z,1.40
2023-01-26T21:08:54.559Z,1.40
2023-01-26T21:11:24.405Z,1.40
2023-01-26T21:13:52.837Z,1.50
2023-01-26T21:16:20.881Z,1.60
2023-01-26T21:18:49.317Z,1.60
2023-01-26T21:21:18.419Z,1.70
2023-01-26T21:23:47.902Z,1.70
2023-01-26T21:26:17.427Z,1.70
2023-01-26T21:28:45.634Z,1.70
2023-01-26T21:31:15.359Z,1.70
2023-01-26T21:33:44.786Z,1.70
2023-01-26T21:36:14.884Z,1.80
2023-01-26T21:38:45.118Z,1.80
2023-01-26T21:41:36.159Z,1.90
2023-01-26T21:44:06.979Z,1.80
2023-01-26T21:46:35.532Z,1.80
2023-01-26T21:49:03.739Z,1.80
2023-01-26T21:51:50.010Z,1.90
2023-01-26T21:54:18.207Z,1.80
2023-01-26T21:56:47.592Z,1.90
2023-01-26T21:59:15.904Z,2.20
2023-01-26T22:01:45.911Z,2.60
2023-01-26T22:04:16.198Z,2.80
2023-01-26T22:06:44.111Z,2.80
2023-01-26T22:09:13.632Z,2.60
2023-01-26T22:11:41.482Z,2.80
2023-01-26T22:14:15.368Z,2.80
2023-01-26T22:16:43.705Z,2.60
2023-01-26T22:19:12.314Z,2.80
2023-01-26T22:21:40.469Z,2.90
2023-01-26T22:24:11.726Z,3.00
2023-01-26T22:26:39.996Z,3.40
2023-01-26T22:29:08.698Z,3.50
2023-01-26T22:31:37.901Z,3.70
2023-01-26T22:34:05.701Z,3.90
2023-01-26T22:36:33.670Z,4.00
2023-01-26T22:39:01.605Z,4.20
2023-01-26T22:41:30.329Z,3.80
2023-01-26T22:43:59.959Z,4.00
2023-01-26T22:46:29.895Z,4.10
2023-01-26T22:49:00.289Z,4.20
2023-01-26T22:51:30.557Z,4.30
2023-01-26T22:53:59.546Z,4.30
2023-01-26T22:56:27.843Z,4.40
2023-01-26T22:58:59.338Z,4.30
2023-01-26T23:01:29.002Z,4.40
2023-01-26T23:03:57.779Z,4.40
2023-01-26T23:06:27.496Z,4.40
2023-01-26T23:08:55.505Z,4.50
2023-01-26T23:11:25.561Z,4.50
2023-01-26T23:13:55.155Z,4.60
2023-01-26T23:16:23.962Z,4.70
2023-01-26T23:18:52.123Z,4.70
2023-01-26T23:21:20.552Z,4.70
2023-01-26T23:23:49.739Z,4.70
2023-01-26T23:26:17.803Z,4.70
2023-01-26T23:28:46.016Z,4.70
2023-01-26T23:31:15.504Z,4.70
2023-01-26T23:33:43.472Z,4.60
2023-01-26T23:36:13.776Z,4.70
2023-01-26T23:38:42.264Z,4.80
2023-01-26T23:41:12.043Z,4.70
2023-01-26T23:43:40.390Z,4.60
2023-01-26T23:46:10.272Z,4.70
2023-01-26T23:48:38.546Z,4.70
2023-01-26T23:51:08.677Z,4.60
2023-01-26T23:53:36.898Z,4.70
2023-01-26T23:56:08.027Z,4.70
2023-01-26T23:58:37.460Z,4.70
